Time;durP1;ratioP1;P1;durP2;ratioP2;P2;SDS_P1;SDS_P2;PMS_P1;PMS_P2;Temp;Humidity;BMP_temperature;BMP_pressure;BME280_temperature;BME280_humidity;BME280_pressure;Samples;Min_cycle;Max_cycle;Signal;HPM_P1;HPM_P2
2023/08/13 03:01:50;;;;;;;0.70;0.70;;;23.00;58.00;;;;;;5294891;23;45575;-82
2023/08/13 03:04:16;;;;;;;1.35;0.98;;;23.00;58.10;;;;;;4919485;28;44768;-83
2023/08/13 03:06:41;;;;;;;1.00;0.73;;;23.00;58.10;;;;;;4934783;28;45870;-81
2023/08/13 03:09:09;;;;;;;1.30;1.08;;;23.00;58.10;;;;;;4919212;28;46810;-82
2023/08/13 03:11:35;;;;;;;0.80;0.80;;;23.00;58.00;;;;;;4894948;28;44974;-82
2023/08/13 03:14:00;;;;;;;1.10;1.00;;;23.00;58.00;;;;;;4906793;28;44957;-80
2023/08/13 03:16:26;;;;;;;0.85;0.68;;;23.00;58.00;;;;;;4914017;28;45752;-84
2023/08/13 03:18:51;;;;;;;0.90;0.90;;;23.00;58.00;;;;;;4919140;28;47346;-80
2023/08/13 03:21:18;;;;;;;0.93;0.80;;;23.00;58.00;;;;;;4917201;28;46167;-80
2023/08/13 03:23:43;;;;;;;0.75;0.70;;;23.00;58.00;;;;;;4920949;28;45284;-82
2023/08/13 03:26:09;;;;;;;1.20;0.90;;;23.00;58.00;;;;;;4901445;28;45701;-80
2023/08/13 03:28:34;;;;;;;2.58;1.05;;;23.00;58.00;;;;;;4904312;28;47399;-82
2023/08/13 03:31:00;;;;;;;0.90;0.85;;;23.00;58.00;;;;;;4913008;28;44728;-84
2023/08/13 03:33:26;;;;;;;0.70;0.70;;;23.00;58.60;;;;;;4920118;28;45487;-80
2023/08/13 03:35:52;;;;;;;1.30;0.88;;;23.00;58.00;;;;;;4918809;28;45295;-80
2023/08/13 03:38:17;;;;;;;1.10;0.77;;;23.00;58.00;;;;;;4921979;28;46948;-84
2023/08/13 03:40:43;;;;;;;1.17;0.70;;;23.00;58.00;;;;;;4900512;28;45312;-81
2023/08/13 03:43:08;;;;;;;0.95;0.95;;;23.00;58.00;;;;;;4919480;28;44812;-81
2023/08/13 03:45:34;;;;;;;0.70;0.70;;;23.00;58.00;;;;;;4915126;28;45514;-81
2023/08/13 03:48:00;;;;;;;1.27;0.80;;;23.00;58.00;;;;;;4917386;28;46201;-81
2023/08/13 03:50:25;;;;;;;0.90;0.90;;;23.00;58.00;;;;;;4915355;28;45310;-83
2023/08/13 03:52:51;;;;;;;0.93;0.80;;;23.00;58.00;;;;;;4901887;28;46221;-83
2023/08/13 03:55:16;;;;;;;0.82;0.82;;;23.00;58.00;;;;;;4907153;28;45296;-81
2023/08/13 03:57:42;;;;;;;0.80;0.80;;;23.00;58.00;;;;;;4884754;28;47329;-81
2023/08/13 04:00:08;;;;;;;2.20;0.60;;;23.00;58.00;;;;;;4902112;28;45366;-86
2023/08/13 04:02:33;;;;;;;0.63;0.63;;;23.00;58.00;;;;;;4882468;28;45406;-81
2023/08/13 04:05:01;;;;;;;0.63;0.63;;;23.00;58.00;;;;;;4902234;28;45405;-84
2023/08/13 04:07:26;;;;;;;0.70;0.70;;;23.00;58.00;;;;;;4913820;28;45771;-81
2023/08/13 04:09:52;;;;;;;3.42;0.77;;;23.00;58.00;;;;;;4902486;28;45988;-84
2023/08/13 04:12:17;;;;;;;0.85;0.73;;;23.00;58.00;;;;;;4914371;28;45715;-84
2023/08/13 04:14:43;;;;;;;0.77;0.77;;;23.00;58.00;;;;;;4901882;28;46194;-81
2023/08/13 04:17:09;;;;;;;1.80;0.80;;;23.00;58.00;;;;;;4912649;28;47470;-80
2023/08/13 04:19:34;;;;;;;0.70;0.70;;;23.00;58.00;;;;;;4899922;28;45377;-83
2023/08/13 04:22:00;;;;;;;1.77;0.70;;;23.00;58.00;;;;;;4913939;28;45203;-82
2023/08/13 04:24:25;;;;;;;1.02;0.70;;;23.00;58.00;;;;;;4921441;28;45127;-81
2023/08/13 04:26:52;;;;;;;0.68;0.68;;;23.00;58.00;;;;;;4919414;28;46107;-80
2023/08/13 04:29:18;;;;;;;0.68;0.68;;;23.00;58.00;;;;;;4901938;28;45529;-81
2023/08/13 04:31:44;;;;;;;0.60;0.60;;;23.00;58.00;;;;;;4927068;28;45598;-82
2023/08/13 04:34:09;;;;;;;1.88;0.95;;;23.00;58.00;;;;;;4920741;28;46026;-82
2023/08/13 04:36:36;;;;;;;0.60;0.60;;;23.00;58.00;;;;;;4898608;28;46317;-82
2023/08/13 04:39:02;;;;;;;1.85;0.80;;;23.00;58.00;;;;;;4905993;28;45645;-81
2023/08/13 04:41:27;;;;;;;0.70;0.70;;;23.00;58.00;;;;;;4913654;28;45688;-83
2023/08/13 04:43:53;;;;;;;0.70;0.70;;;23.00;58.00;;;;;;4932586;28;45302;-81
2023/08/13 04:46:19;;;;;;;0.70;0.70;;;23.00;58.00;;;;;;4926842;28;45358;-83
2023/08/13 04:48:46;;;;;;;1.15;0.93;;;23.00;58.00;;;;;;4928953;28;46236;-81
2023/08/13 04:51:12;;;;;;;1.55;0.80;;;23.00;58.00;;;;;;4877442;28;45221;-81
2023/08/13 04:53:37;;;;;;;0.43;0.43;;;23.00;58.00;;;;;;4933308;28;45828;-81
2023/08/13 04:56:05;;;;;;;0.70;0.70;;;23.00;58.00;;;;;;4929362;28;45419;-80
2023/08/13 04:58:30;;;;;;;0.85;0.70;;;23.00;58.00;;;;;;4898922;28;45265;-83
2023/08/13 05:00:56;;;;;;;1.30;0.80;;;23.00;58.10;;;;;;4927425;28;45506;-81
2023/08/13 05:03:22;;;;;;;0.60;0.52;;;22.90;57.90;;;;;;4918751;28;45702;-81
2023/08/13 05:05:47;;;;;;;1.42;0.80;;;23.00;58.00;;;;;;4899428;28;45460;-81
2023/08/13 05:08:13;;;;;;;1.63;1.02;;;22.90;58.00;;;;;;4902118;28;45716;-81
2023/08/13 05:10:38;;;;;;;1.80;0.80;;;23.00;58.00;;;;;;4913973;28;45860;-80
2023/08/13 05:13:04;;;;;;;0.93;0.82;;;22.90;57.90;;;;;;4909100;28;45112;-80
2023/08/13 05:15:29;;;;;;;0.73;0.70;;;23.00;58.00;;;;;;4929539;28;45198;-81
2023/08/13 05:17:57;;;;;;;1.10;0.80;;;23.00;58.00;;;;;;4906057;28;45648;-82
2023/08/13 05:20:23;;;;;;;0.70;0.70;;;23.00;58.00;;;;;;4922168;28;44764;-82
2023/08/13 05:22:49;;;;;;;1.05;0.80;;;23.00;58.00;;;;;;4922050;28;45968;-84
2023/08/13 05:25:14;;;;;;;0.90;0.73;;;22.90;57.90;;;;;;4904832;28;47335;-82
2023/08/13 05:27:40;;;;;;;0.90;0.68;;;23.00;58.00;;;;;;4907009;28;44803;-84
2023/08/13 05:30:12;;;;;;;0.88;0.70;;;23.00;58.00;;;;;;4923685;28;45031;-83
2023/08/13 05:32:40;;;;;;;0.90;0.90;;;23.00;58.00;;;;;;4922453;28;45759;-83
2023/08/13 05:35:09;;;;;;;0.73;0.70;;;23.00;58.00;;;;;;4927971;28;45910;-82
2023/08/13 05:37:37;;;;;;;0.70;0.52;;;23.00;58.00;;;;;;4937329;28;45800;-82
2023/08/13 05:40:09;;;;;;;0.70;0.70;;;23.00;58.00;;;;;;4903328;28;45664;-85
2023/08/13 05:42:37;;;;;;;1.10;1.00;;;22.90;57.90;;;;;;4919999;28;45946;-81
2023/08/13 05:45:07;;;;;;;3.03;0.77;;;23.00;58.00;;;;;;4923171;28;47335;-86
2023/08/13 05:47:33;;;;;;;0.68;0.68;;;22.90;58.00;;;;;;4933638;28;45647;-80
2023/08/13 05:49:58;;;;;;;0.77;0.75;;;22.90;58.00;;;;;;4919481;28;45615;-82
2023/08/13 05:52:24;;;;;;;2.53;0.80;;;23.00;58.00;;;;;;4935522;28;45300;-83
2023/08/13 05:54:50;;;;;;;0.63;0.60;;;22.90;58.00;;;;;;4901205;28;47273;-82
2023/08/13 05:57:15;;;;;;;0.75;0.75;;;22.90;58.00;;;;;;4918114;28;44906;-84
2023/08/13 05:59:42;;;;;;;0.82;0.82;;;23.00;58.70;;;;;;4919988;28;45724;-82
2023/08/13 06:02:08;;;;;;;0.80;0.80;;;23.00;58.00;;;;;;4893152;28;45177;-81
2023/08/13 06:04:36;;;;;;;0.77;0.77;;;23.00;58.10;;;;;;4900558;28;45544;-81
2023/08/13 06:07:03;;;;;;;0.77;0.77;;;22.90;58.60;;;;;;4912310;28;46163;-80
2023/08/13 06:09:29;;;;;;;0.90;0.80;;;23.00;58.00;;;;;;4885302;28;45686;-81
2023/08/13 06:11:54;;;;;;;1.05;0.82;;;22.90;58.00;;;;;;4911388;28;45419;-82
2023/08/13 06:14:20;;;;;;;1.00;0.90;;;22.90;58.00;;;;;;4901093;28;47851;-82
2023/08/13 06:16:46;;;;;;;1.08;0.63;;;23.00;58.10;;;;;;4907351;28;45345;-84
2023/08/13 06:19:12;;;;;;;1.58;0.80;;;22.90;58.00;;;;;;4914620;28;45347;-81
2023/08/13 06:21:38;;;;;;;1.00;0.70;;;23.00;58.00;;;;;;4894308;28;45573;-82
2023/08/13 06:24:05;;;;;;;1.10;0.82;;;22.90;58.00;;;;;;4914478;28;46345;-81
2023/08/13 06:26:31;;;;;;;0.68;0.68;;;22.90;58.00;;;;;;4911373;28;45219;-82
2023/08/13 06:28:57;;;;;;;0.80;0.75;;;23.00;58.00;;;;;;4917235;28;45276;-80
2023/08/13 06:31:22;;;;;;;1.27;0.82;;;23.00;58.00;;;;;;4878964;28;45321;-80
2023/08/13 06:33:48;;;;;;;0.73;0.73;;;23.00;58.10;;;;;;4930354;28;45447;-81
2023/08/13 06:36:13;;;;;;;1.25;0.98;;;23.00;58.10;;;;;;4912771;28;46152;-81
2023/08/13 06:38:39;;;;;;;0.55;0.55;;;22.90;58.00;;;;;;4914711;28;45322;-81
2023/08/13 06:41:07;;;;;;;1.00;0.90;;;22.90;58.00;;;;;;4911512;28;46240;-82
2023/08/13 06:43:33;;;;;;;0.70;0.70;;;22.90;58.00;;;;;;4914270;28;46837;-81
2023/08/13 06:46:00;;;;;;;1.65;0.82;;;22.90;58.00;;;;;;4908885;28;45136;-87
2023/08/13 06:48:26;;;;;;;0.75;0.70;;;22.90;58.00;;;;;;4899043;28;45352;-81
2023/08/13 06:50:55;;;;;;;0.63;0.60;;;22.90;58.00;;;;;;4909955;28;45514;-80
2023/08/13 06:53:21;;;;;;;0.88;0.80;;;22.90;58.00;;;;;;4895859;28;46982;-83
2023/08/13 06:55:46;;;;;;;0.90;0.77;;;22.90;58.00;;;;;;4911451;28;46153;-82
2023/08/13 06:58:12;;;;;;;2.22;0.77;;;22.90;58.00;;;;;;4932863;28;45369;-81
2023/08/13 07:00:38;;;;;;;1.35;1.00;;;22.90;58.00;;;;;;4910878;28;45694;-82
2023/08/13 07:03:04;;;;;;;0.68;0.68;;;22.90;58.00;;;;;;4896747;28;46846;-82
2023/08/13 07:05:29;;;;;;;1.13;0.90;;;22.90;58.00;;;;;;4897393;28;45230;-82
2023/08/13 07:07:55;;;;;;;3.58;0.80;;;22.90;58.00;;;;;;4914352;28;45418;-80
2023/08/13 07:10:20;;;;;;;1.17;1.00;;;23.00;58.10;;;;;;4913318;28;45556;-81
2023/08/13 07:12:46;;;;;;;0.95;0.70;;;22.90;58.00;;;;;;4887378;28;45681;-81
2023/08/13 07:15:11;;;;;;;1.23;0.90;;;22.90;58.00;;;;;;4898333;28;44935;-81
2023/08/13 07:17:37;;;;;;;1.00;0.90;;;22.90;58.00;;;;;;4895114;28;45836;-82
2023/08/13 07:20:09;;;;;;;1.13;0.95;;;22.90;58.00;;;;;;4897358;28;46732;-84
2023/08/13 07:22:37;;;;;;;1.00;0.80;;;22.90;58.10;;;;;;4900130;28;48870;-81
2023/08/13 07:25:09;;;;;;;0.80;0.80;;;22.90;58.00;;;;;;4902170;28;45580;-85
2023/08/13 07:27:35;;;;;;;0.98;0.80;;;22.90;58.10;;;;;;4912062;28;45211;-81
2023/08/13 07:30:01;;;;;;;0.90;0.90;;;23.00;58.20;;;;;;4931417;28;45606;-80
2023/08/13 07:32:28;;;;;;;0.95;0.75;;;22.90;58.10;;;;;;4895783;28;47229;-81
2023/08/13 07:34:54;;;;;;;0.70;0.70;;;23.00;58.10;;;;;;4907401;28;45921;-83
2023/08/13 07:37:19;;;;;;;0.98;0.95;;;22.90;58.00;;;;;;4915239;28;44924;-84
2023/08/13 07:39:45;;;;;;;1.08;0.80;;;22.90;58.00;;;;;;4910784;28;45691;-80
2023/08/13 07:42:11;;;;;;;1.10;0.73;;;23.00;58.10;;;;;;4899566;28;47181;-80
2023/08/13 07:44:37;;;;;;;1.10;0.90;;;23.00;58.10;;;;;;4919527;28;45513;-81
2023/08/13 07:47:02;;;;;;;1.10;0.95;;;23.00;58.10;;;;;;4909971;28;45896;-81
2023/08/13 07:49:28;;;;;;;0.88;0.85;;;22.90;58.10;;;;;;4900878;28;45298;-80
2023/08/13 07:51:53;;;;;;;0.63;0.63;;;22.90;58.00;;;;;;4899894;28;46145;-81
2023/08/13 07:54:22;;;;;;;1.58;0.75;;;23.00;58.10;;;;;;4886272;28;44874;-80
2023/08/13 07:56:48;;;;;;;1.23;1.08;;;23.00;58.10;;;;;;4914595;28;45640;-81
2023/08/13 07:59:14;;;;;;;1.05;0.95;;;23.00;58.10;;;;;;4917459;28;45210;-80
2023/08/13 08:01:40;;;;;;;0.80;0.75;;;23.00;58.10;;;;;;4892081;28;45645;-81
2023/08/13 08:04:06;;;;;;;1.23;0.90;;;23.00;58.20;;;;;;4929868;28;45758;-82
2023/08/13 08:06:32;;;;;;;3.13;1.02;;;23.00;58.10;;;;;;4895491;28;45601;-83
2023/08/13 08:08:57;;;;;;;0.93;0.90;;;23.00;58.10;;;;;;4912089;28;45824;-79
2023/08/13 08:11:31;;;;;;;0.52;0.50;;;23.00;58.10;;;;;;5026634;27;45587;-46
2023/08/13 08:13:57;;;;;;;0.77;0.70;;;22.90;58.10;;;;;;5035484;27;46521;-46
2023/08/13 08:16:22;;;;;;;0.93;0.70;;;23.00;58.20;;;;;;5015392;27;45705;-46
2023/08/13 08:18:48;;;;;;;0.80;0.80;;;23.00;58.10;;;;;;5030315;27;46005;-47
2023/08/13 08:21:14;;;;;;;1.15;1.05;;;23.00;58.10;;;;;;5030867;27;47152;-46
2023/08/13 08:23:40;;;;;;;0.70;0.70;;;23.00;58.20;;;;;;5034948;27;46377;-48
2023/08/13 08:26:06;;;;;;;0.70;0.70;;;23.00;58.20;;;;;;5020994;27;46410;-46
2023/08/13 08:28:31;;;;;;;0.85;0.77;;;23.00;58.10;;;;;;5037436;27;46282;-45
2023/08/13 08:30:57;;;;;;;1.17;0.95;;;23.00;58.10;;;;;;5004539;27;46695;-47
2023/08/13 08:33:23;;;;;;;1.15;0.98;;;23.00;58.10;;;;;;5018764;27;46014;-46
2023/08/13 08:35:49;;;;;;;0.80;0.77;;;23.00;58.20;;;;;;5009732;27;45175;-46
2023/08/13 08:38:14;;;;;;;0.98;0.90;;;23.00;58.20;;;;;;5033716;27;45224;-46
2023/08/13 08:40:45;;;;;;;1.10;0.90;;;23.00;58.10;;;;;;5036343;27;45487;-45
2023/08/13 08:43:11;;;;;;;0.80;0.80;;;23.00;58.20;;;;;;5037464;27;46792;-46
2023/08/13 08:45:37;;;;;;;0.80;0.80;;;23.00;58.20;;;;;;5052620;27;45511;-46
2023/08/13 08:48:04;;;;;;;1.15;0.90;;;23.00;58.20;;;;;;5079466;27;45707;-45
2023/08/13 08:50:30;;;;;;;0.80;0.80;;;23.00;58.10;;;;;;5060559;27;45696;-45
2023/08/13 08:52:56;;;;;;;1.45;0.93;;;23.00;58.10;;;;;;5088852;27;45428;-47
2023/08/13 08:55:22;;;;;;;0.82;0.80;;;23.00;58.10;;;;;;5078433;27;45823;-45
2023/08/13 08:57:48;;;;;;;0.80;0.80;;;23.00;58.10;;;;;;5063356;27;46407;-45
2023/08/13 09:00:15;;;;;;;0.77;0.77;;;23.00;58.20;;;;;;5054489;27;45308;-45
2023/08/13 09:02:41;;;;;;;1.05;0.95;;;23.00;58.20;;;;;;5012974;27;45792;-45
2023/08/13 09:05:07;;;;;;;1.00;0.90;;;23.00;58.20;;;;;;5046115;27;45309;-47
2023/08/13 09:07:33;;;;;;;0.90;0.90;;;23.00;58.20;;;;;;5082219;27;45356;-45
2023/08/13 09:09:59;;;;;;;0.80;0.80;;;23.00;58.20;;;;;;5062829;27;45245;-45
2023/08/13 09:12:24;;;;;;;0.82;0.70;;;23.00;58.20;;;;;;5032789;27;44691;-46
2023/08/13 09:14:56;;;;;;;1.00;0.80;;;23.00;58.20;;;;;;5065174;27;45605;-46
2023/08/13 09:17:23;;;;;;;0.70;0.70;;;23.00;58.20;;;;;;5037920;27;45850;-46
2023/08/13 09:19:49;;;;;;;1.25;0.90;;;23.00;58.20;;;;;;5050152;27;46160;-46
2023/08/13 09:22:15;;;;;;;0.82;0.60;;;23.00;58.20;;;;;;5043882;27;46235;-45
2023/08/13 09:24:43;;;;;;;0.90;0.90;;;23.00;58.20;;;;;;5072440;27;45297;-45
2023/08/13 09:27:09;;;;;;;0.80;0.80;;;23.00;58.20;;;;;;5041409;27;45518;-44
2023/08/13 09:29:38;;;;;;;1.00;0.80;;;23.00;58.20;;;;;;5075964;27;46572;-45
2023/08/13 09:32:04;;;;;;;1.08;0.85;;;23.00;58.20;;;;;;5012093;27;45294;-45
2023/08/13 09:34:30;;;;;;;1.70;1.05;;;23.00;58.80;;;;;;5059525;27;46394;-45
2023/08/13 09:36:56;;;;;;;0.70;0.70;;;23.00;58.20;;;;;;5046725;27;45190;-46
2023/08/13 09:39:23;;;;;;;0.82;0.70;;;23.00;58.20;;;;;;5032614;27;45211;-45
2023/08/13 09:41:49;;;;;;;0.80;0.80;;;23.00;58.20;;;;;;5041398;27;46452;-46
2023/08/13 09:44:15;;;;;;;0.73;0.60;;;23.00;58.20;;;;;;5057704;27;45336;-46
2023/08/13 09:46:40;;;;;;;0.70;0.70;;;23.00;58.20;;;;;;5048803;27;46330;-45
2023/08/13 09:49:09;;;;;;;0.68;0.68;;;23.00;58.20;;;;;;5053607;27;46430;-45
2023/08/13 09:51:34;;;;;;;0.68;0.68;;;23.00;58.30;;;;;;5030560;27;45332;-46
2023/08/13 09:54:13;;;;;;;0.82;0.82;;;23.00;58.20;;;;;;5050842;27;45789;-46
2023/08/13 09:56:41;;;;;;;0.77;0.77;;;23.10;58.20;;;;;;4983998;27;45702;-45
2023/08/13 09:59:07;;;;;;;0.85;0.85;;;23.00;58.20;;;;;;5030223;27;46215;-46
2023/08/13 10:01:33;;;;;;;1.02;0.77;;;23.00;58.20;;;;;;4969739;28;45990;-46
2023/08/13 10:03:59;;;;;;;0.70;0.68;;;23.00;58.20;;;;;;4998588;28;45290;-46
2023/08/13 10:06:24;;;;;;;1.02;0.93;;;23.00;58.20;;;;;;4978318;28;46533;-45
2023/08/13 10:08:50;;;;;;;0.80;0.80;;;23.00;58.20;;;;;;4999794;28;45771;-46
2023/08/13 10:11:15;;;;;;;0.75;0.75;;;23.00;58.20;;;;;;4970016;28;45878;-46
2023/08/13 10:13:41;;;;;;;1.67;1.05;;;23.00;58.20;;;;;;4998728;28;45392;-46
2023/08/13 10:16:07;;;;;;;0.90;0.70;;;23.00;58.20;;;;;;4973585;28;45711;-46
2023/08/13 10:18:33;;;;;;;0.80;0.70;;;23.00;58.20;;;;;;4996605;28;45638;-45
2023/08/13 10:20:58;;;;;;;0.77;0.77;;;23.00;58.30;;;;;;4980370;28;45867;-46
2023/08/13 10:23:24;;;;;;;1.17;0.60;;;23.00;58.20;;;;;;4995365;28;45162;-45
2023/08/13 10:25:52;;;;;;;1.30;0.70;;;23.00;58.30;;;;;;4971497;28;47941;-45
2023/08/13 10:28:22;;;;;;;0.93;0.82;;;23.00;58.20;;;;;;4995487;28;46408;-46
2023/08/13 10:30:48;;;;;;;1.02;0.80;;;23.10;58.30;;;;;;4978456;28;45810;-46
2023/08/13 10:33:14;;;;;;;0.80;0.77;;;23.00;58.30;;;;;;4998826;28;45278;-46
2023/08/13 10:35:42;;;;;;;0.90;0.73;;;23.00;58.30;;;;;;4977117;28;45645;-46
2023/08/13 10:38:07;;;;;;;0.90;0.90;;;23.10;58.30;;;;;;4991404;28;46506;-46
2023/08/13 10:40:33;;;;;;;1.20;0.75;;;23.10;58.30;;;;;;4982975;28;45299;-46
2023/08/13 10:42:59;;;;;;;0.82;0.70;;;23.00;58.30;;;;;;4989206;28;45682;-47
2023/08/13 10:45:25;;;;;;;0.80;0.80;;;23.00;58.30;;;;;;4971900;28;46335;-48
2023/08/13 10:47:52;;;;;;;0.90;0.73;;;23.00;58.30;;;;;;4982873;28;45344;-46
2023/08/13 10:50:40;;;;;;;0.90;0.80;;;23.10;58.90;;;;;;4991890;28;46083;-46
2023/08/13 10:53:10;;;;;;;0.60;0.60;;;23.10;58.30;;;;;;4986108;28;45957;-45
2023/08/13 10:55:39;;;;;;;1.55;0.73;;;23.00;58.30;;;;;;4980711;28;45285;-45
2023/08/13 10:58:04;;;;;;;0.98;0.80;;;23.00;58.30;;;;;;4981646;28;46145;-47
2023/08/13 11:00:30;;;;;;;0.93;0.85;;;23.00;58.30;;;;;;4963271;28;45103;-47
2023/08/13 11:02:59;;;;;;;0.95;0.80;;;23.00;58.30;;;;;;4988833;28;45516;-45
2023/08/13 11:05:25;;;;;;;0.73;0.73;;;23.00;58.30;;;;;;4975429;28;45755;-47
2023/08/13 11:07:51;;;;;;;0.90;0.90;;;23.00;58.30;;;;;;4988745;28;46218;-45
2023/08/13 11:10:20;;;;;;;1.60;1.10;;;23.00;58.30;;;;;;4975579;28;46125;-46
2023/08/13 11:12:46;;;;;;;1.23;0.88;;;23.10;58.30;;;;;;4990079;28;45770;-45
2023/08/13 11:15:12;;;;;;;0.70;0.70;;;23.00;58.20;;;;;;4984330;28;45460;-46
2023/08/13 11:17:40;;;;;;;0.80;0.80;;;23.00;58.20;;;;;;4987527;28;45957;-48
2023/08/13 11:20:09;;;;;;;0.70;0.70;;;23.00;58.30;;;;;;4990231;28;45974;-46
2023/08/13 11:22:35;;;;;;;0.82;0.70;;;23.00;58.20;;;;;;4992232;28;45753;-45
2023/08/13 11:25:00;;;;;;;1.10;0.77;;;23.00;58.30;;;;;;4999959;28;46616;-46
2023/08/13 11:27:28;;;;;;;0.93;0.80;;;23.00;58.20;;;;;;4968726;28;45907;-47
2023/08/13 11:29:54;;;;;;;0.82;0.60;;;23.00;58.20;;;;;;5018213;28;45310;-46
2023/08/13 11:32:20;;;;;;;2.05;0.93;;;23.00;58.30;;;;;;4973263;28;45348;-46
2023/08/13 11:34:45;;;;;;;1.27;0.73;;;23.10;58.30;;;;;;4998354;28;45720;-47
2023/08/13 11:37:12;;;;;;;0.57;0.57;;;23.00;58.30;;;;;;4986407;28;45842;-46
2023/08/13 11:39:37;;;;;;;0.90;0.77;;;23.00;58.20;;;;;;4992043;28;46618;-46
2023/08/13 11:42:09;;;;;;;0.80;0.75;;;23.10;58.30;;;;;;4991228;28;45649;-45
2023/08/13 11:44:35;;;;;;;0.70;0.70;;;23.10;58.30;;;;;;4998601;28;44962;-46
2023/08/13 11:47:04;;;;;;;0.70;0.70;;;23.00;58.30;;;;;;4976338;28;46024;-46
2023/08/13 11:49:30;;;;;;;1.23;0.80;;;23.00;58.60;;;;;;4987019;28;45195;-48
2023/08/13 11:51:56;;;;;;;0.98;0.77;;;23.10;58.30;;;;;;4980517;28;45602;-48
2023/08/13 11:54:22;;;;;;;0.60;0.60;;;23.10;58.30;;;;;;4997371;28;46902;-49
2023/08/13 11:56:50;;;;;;;1.55;0.80;;;23.00;58.30;;;;;;4974451;28;45391;-45
2023/08/13 11:59:21;;;;;;;0.85;0.80;;;23.10;58.30;;;;;;4995638;28;45114;-45
2023/08/13 12:01:50;;;;;;;1.00;0.60;;;23.00;58.80;;;;;;4970849;28;45314;-46
2023/08/13 12:04:15;;;;;;;0.93;0.70;;;23.00;58.30;;;;;;4980740;28;46094;-46
2023/08/13 12:06:41;;;;;;;1.00;0.90;;;23.10;58.30;;;;;;4964829;28;46378;-46
2023/08/13 12:09:07;;;;;;;3.05;1.10;;;23.10;58.30;;;;;;4993001;28;45187;-46
2023/08/13 12:11:32;;;;;;;0.80;0.80;;;23.00;58.30;;;;;;4974020;28;46220;-46
2023/08/13 12:14:04;;;;;;;2.58;0.80;;;23.10;58.30;;;;;;4992934;28;44757;-46
2023/08/13 12:16:30;;;;;;;0.80;0.80;;;23.10;58.30;;;;;;4970373;28;45984;-46
2023/08/13 12:18:57;;;;;;;0.90;0.80;;;23.10;58.30;;;;;;4981833;28;45375;-45
2023/08/13 12:21:23;;;;;;;1.13;0.68;;;23.00;58.20;;;;;;4969074;28;46544;-46
2023/08/13 12:23:48;;;;;;;0.98;0.70;;;23.10;58.30;;;;;;4999010;28;45861;-44
2023/08/13 12:26:14;;;;;;;1.48;0.98;;;23.10;58.30;;;;;;4973140;28;45909;-46
2023/08/13 12:28:39;;;;;;;0.88;0.80;;;23.10;58.30;;;;;;4995226;28;45285;-46
2023/08/13 12:31:05;;;;;;;1.05;0.68;;;23.00;58.30;;;;;;4969248;28;45533;-45
2023/08/13 12:33:31;;;;;;;1.08;0.90;;;23.10;58.30;;;;;;4988990;28;45995;-47
2023/08/13 12:35:56;;;;;;;0.75;0.70;;;23.10;58.30;;;;;;4986274;28;46471;-46
2023/08/13 12:38:22;;;;;;;0.70;0.70;;;23.00;58.20;;;;;;4998623;28;46225;-46
2023/08/13 12:40:47;;;;;;;1.27;0.88;;;23.00;58.30;;;;;;4985426;28;47956;-46
2023/08/13 12:43:13;;;;;;;1.00;0.90;;;23.00;58.30;;;;;;4996699;28;46840;-47
2023/08/13 12:45:39;;;;;;;0.95;0.90;;;23.00;58.30;;;;;;4976779;28;45873;-46
2023/08/13 12:48:05;;;;;;;0.88;0.70;;;23.10;58.30;;;;;;4987303;28;45876;-46
2023/08/13 12:50:30;;;;;;;1.10;1.00;;;23.10;58.30;;;;;;4992820;28;45578;-45
2023/08/13 12:52:57;;;;;;;0.70;0.70;;;23.10;58.30;;;;;;4996467;28;45765;-45
2023/08/13 12:55:22;;;;;;;0.98;0.88;;;23.10;58.30;;;;;;4980429;28;45480;-47
2023/08/13 12:57:48;;;;;;;0.93;0.80;;;23.00;58.80;;;;;;4992774;28;45381;-46
2023/08/13 13:00:15;;;;;;;0.85;0.77;;;23.10;58.30;;;;;;4986033;28;45512;-47
2023/08/13 13:02:40;;;;;;;1.15;0.80;;;23.00;58.30;;;;;;4984421;28;46090;-47
2023/08/13 13:05:07;;;;;;;0.82;0.77;;;23.00;58.30;;;;;;4990086;28;45989;-46
2023/08/13 13:07:33;;;;;;;0.80;0.80;;;23.10;58.30;;;;;;4990998;28;45981;-46
2023/08/13 13:09:58;;;;;;;1.02;0.90;;;23.10;58.30;;;;;;5004495;28;45911;-46
2023/08/13 13:12:24;;;;;;;1.10;0.70;;;23.10;58.30;;;;;;4989122;28;45857;-48
2023/08/13 13:14:50;;;;;;;1.55;0.88;;;23.00;58.30;;;;;;5001005;28;45512;-46
2023/08/13 13:17:15;;;;;;;1.38;0.90;;;23.10;58.30;;;;;;4969094;28;45484;-47
2023/08/13 13:19:42;;;;;;;1.02;0.70;;;23.10;58.40;;;;;;4969577;28;45445;-45
2023/08/13 13:22:08;;;;;;;0.93;0.90;;;23.10;58.30;;;;;;4981276;28;46728;-46
2023/08/13 13:24:34;;;;;;;1.00;0.90;;;23.10;58.30;;;;;;4991297;28;45713;-49
2023/08/13 13:26:59;;;;;;;1.00;0.80;;;23.10;58.30;;;;;;4983216;28;45303;-46
2023/08/13 13:29:25;;;;;;;0.85;0.70;;;23.10;58.30;;;;;;4993256;28;44746;-46
2023/08/13 13:31:50;;;;;;;0.70;0.60;;;23.10;58.40;;;;;;4969320;28;46052;-46
2023/08/13 13:34:16;;;;;;;0.80;0.68;;;23.10;58.40;;;;;;4988706;28;50050;-44
2023/08/13 13:36:42;;;;;;;0.77;0.73;;;23.10;58.30;;;;;;4982385;28;45502;-45
2023/08/13 13:39:07;;;;;;;0.77;0.75;;;23.10;58.30;;;;;;4995288;28;45935;-46
2023/08/13 13:41:33;;;;;;;0.90;0.85;;;23.10;58.40;;;;;;5004073;27;45808;-48
2023/08/13 13:43:58;;;;;;;0.90;0.68;;;23.10;58.30;;;;;;5004356;28;45868;-46
2023/08/13 13:46:24;;;;;;;0.80;0.80;;;23.10;58.30;;;;;;4981944;28;46159;-46
2023/08/13 13:48:49;;;;;;;1.08;0.80;;;23.10;58.40;;;;;;4995749;28;45342;-46
2023/08/13 13:51:15;;;;;;;0.90;0.90;;;23.10;58.40;;;;;;4987069;28;46328;-45
2023/08/13 13:53:41;;;;;;;1.20;0.95;;;23.10;58.40;;;;;;5001920;28;46312;-46
2023/08/13 13:56:06;;;;;;;0.98;0.88;;;23.10;58.40;;;;;;4993098;28;45615;-45
2023/08/13 13:58:32;;;;;;;1.00;0.80;;;23.10;58.40;;;;;;5002933;28;44791;-45
2023/08/13 14:00:57;;;;;;;0.65;0.65;;;23.10;58.40;;;;;;5012815;27;45927;-48
2023/08/13 14:03:23;;;;;;;0.68;0.68;;;23.10;58.40;;;;;;4994491;28;45917;-45
2023/08/13 14:05:52;;;;;;;0.90;0.73;;;23.10;58.40;;;;;;4992243;28;46907;-47
2023/08/13 14:08:18;;;;;;;1.65;0.93;;;23.10;58.40;;;;;;5008892;28;45468;-48
2023/08/13 14:10:44;;;;;;;1.02;0.70;;;23.10;58.40;;;;;;4982851;28;46869;-47
2023/08/13 14:13:09;;;;;;;0.77;0.63;;;23.10;58.40;;;;;;5002452;28;45922;-46
2023/08/13 14:15:35;;;;;;;1.92;1.00;;;23.10;58.40;;;;;;4979489;28;45820;-47
2023/08/13 14:18:00;;;;;;;0.80;0.80;;;23.10;58.40;;;;;;4980219;28;45704;-45
2023/08/13 14:20:26;;;;;;;1.10;0.88;;;23.10;58.40;;;;;;4979683;28;45210;-47
2023/08/13 14:22:52;;;;;;;0.98;0.90;;;23.10;58.50;;;;;;4982457;28;45978;-47
2023/08/13 14:25:17;;;;;;;0.90;0.85;;;23.10;58.40;;;;;;4991790;28;45674;-46
2023/08/13 14:27:43;;;;;;;0.90;0.90;;;23.10;58.40;;;;;;4991628;28;45957;-46
2023/08/13 14:30:10;;;;;;;0.50;0.50;;;23.10;58.40;;;;;;4987174;28;47123;-46
2023/08/13 14:32:36;;;;;;;0.68;0.68;;;23.10;58.40;;;;;;4978886;28;45349;-46
2023/08/13 14:35:01;;;;;;;0.80;0.80;;;23.10;58.40;;;;;;4989015;28;45570;-46
2023/08/13 14:37:27;;;;;;;0.70;0.70;;;23.10;58.40;;;;;;4978445;28;46135;-45
2023/08/13 14:39:53;;;;;;;0.80;0.75;;;23.10;58.40;;;;;;4994077;28;45914;-45
2023/08/13 14:42:19;;;;;;;0.93;0.80;;;23.10;58.40;;;;;;4979170;28;46186;-47
2023/08/13 14:44:44;;;;;;;0.70;0.70;;;23.10;58.50;;;;;;4988973;28;45239;-46
2023/08/13 14:47:10;;;;;;;1.33;0.80;;;23.10;58.40;;;;;;4971991;28;45999;-45
2023/08/13 14:49:35;;;;;;;0.93;0.82;;;23.10;58.40;;;;;;4994303;28;45422;-46
2023/08/13 14:52:01;;;;;;;1.50;0.70;;;23.10;58.40;;;;;;4980950;28;45916;-45
2023/08/13 14:54:26;;;;;;;1.70;0.63;;;23.10;58.40;;;;;;4992621;28;45384;-45
2023/08/13 14:56:52;;;;;;;1.27;0.88;;;23.10;58.40;;;;;;4999527;28;49557;-45
2023/08/13 14:59:18;;;;;;;4.68;0.93;;;23.10;58.40;;;;;;4997279;28;46214;-46
2023/08/13 15:01:46;;;;;;;0.80;0.80;;;23.20;58.50;;;;;;4963186;28;45838;-46
2023/08/13 15:04:12;;;;;;;1.35;0.90;;;23.10;58.40;;;;;;4992570;28;46103;-47
2023/08/13 15:06:38;;;;;;;1.30;0.80;;;23.20;58.50;;;;;;4978899;28;45496;-46
2023/08/13 15:09:03;;;;;;;0.73;0.70;;;23.10;58.40;;;;;;4994921;28;45753;-45
2023/08/13 15:11:29;;;;;;;1.10;0.90;;;23.10;58.50;;;;;;4985446;28;46524;-45
2023/08/13 15:13:55;;;;;;;1.45;0.70;;;23.10;58.40;;;;;;4998469;28;44992;-46
2023/08/13 15:16:20;;;;;;;1.42;1.05;;;23.10;58.40;;;;;;4977730;28;45578;-45
2023/08/13 15:18:46;;;;;;;0.90;0.90;;;23.10;58.40;;;;;;4979328;28;47155;-46
2023/08/13 15:21:11;;;;;;;2.03;0.75;;;23.10;58.40;;;;;;4984723;28;46132;-45
2023/08/13 15:23:37;;;;;;;1.55;0.80;;;23.10;58.40;;;;;;4990165;28;47221;-46
2023/08/13 15:26:02;;;;;;;0.80;0.80;;;23.10;58.40;;;;;;4988853;28;45981;-45
2023/08/13 15:28:28;;;;;;;1.08;0.80;;;23.20;58.50;;;;;;4997996;28;46409;-46
2023/08/13 15:30:57;;;;;;;1.38;0.80;;;23.10;58.50;;;;;;4979064;28;46460;-46
2023/08/13 15:33:23;;;;;;;0.60;0.60;;;23.10;58.50;;;;;;4994861;28;45345;-45
2023/08/13 15:35:56;;;;;;;0.80;0.80;;;23.20;58.50;;;;;;4992951;27;45401;-45
2023/08/13 15:38:22;;;;;;;0.80;0.80;;;23.20;58.50;;;;;;4995824;28;45469;-44
2023/08/13 15:40:48;;;;;;;0.80;0.80;;;23.20;58.50;;;;;;4980279;28;45353;-44
2023/08/13 15:43:14;;;;;;;1.45;1.00;;;23.10;58.50;;;;;;4998041;28;45903;-46